sensor_id;sensor_type;location;lat;lon;timestamp;P1;durP1;ratioP1;P2;durP2;ratioP2
28836;SDS011;50669;50.982;11.022;2023-08-07T00:01:08;0.60;;;0.60;;
28836;SDS011;50669;50.982;11.022;2023-08-07T00:03:36;0.50;;;0.50;;
28836;SDS011;50669;50.982;11.022;2023-08-07T00:06:02;0.57;;;0.57;;
28836;SDS011;50669;50.982;11.022;2023-08-07T00:08:30;0.50;;;0.50;;
28836;SDS011;50669;50.982;11.022;2023-08-07T00:11:08;0.50;;;0.50;;
28836;SDS011;50669;50.982;11.022;2023-08-07T00:13:36;0.55;;;0.55;;
28836;SDS011;50669;50.982;11.022;2023-08-07T00:16:02;0.40;;;0.40;;
28836;SDS011;50669;50.982;11.022;2023-08-07T00:18:28;0.60;;;0.60;;
28836;SDS011;50669;50.982;11.022;2023-08-07T00:20:54;0.40;;;0.40;;
28836;SDS011;50669;50.982;11.022;2023-08-07T00:23:20;0.52;;;0.52;;
28836;SDS011;50669;50.982;11.022;2023-08-07T00:25:45;0.57;;;0.57;;
28836;SDS011;50669;50.982;11.022;2023-08-07T00:28:11;0.60;;;0.60;;
28836;SDS011;50669;50.982;11.022;2023-08-07T00:30:39;0.70;;;0.70;;
28836;SDS011;50669;50.982;11.022;2023-08-07T00:33:05;0.45;;;0.45;;
28836;SDS011;50669;50.982;11.022;2023-08-07T00:35:30;0.55;;;0.50;;
28836;SDS011;50669;50.982;11.022;2023-08-07T00:37:58;0.60;;;0.60;;
28836;SDS011;50669;50.982;11.022;2023-08-07T00:40:23;0.73;;;0.63;;
28836;SDS011;50669;50.982;11.022;2023-08-07T00:42:49;0.60;;;0.60;;
28836;SDS011;50669;50.982;11.022;2023-08-07T00:45:15;0.50;;;0.50;;
28836;SDS011;50669;50.982;11.022;2023-08-07T00:47:42;0.57;;;0.47;;
28836;SDS011;50669;50.982;11.022;2023-08-07T00:50:10;0.60;;;0.60;;
28836;SDS011;50669;50.982;11.022;2023-08-07T00:52:39;0.43;;;0.40;;
28836;SDS011;50669;50.982;11.022;2023-08-07T00:55:05;0.40;;;0.40;;
28836;SDS011;50669;50.982;11.022;2023-08-07T00:57:30;0.40;;;0.40;;
28836;SDS011;50669;50.982;11.022;2023-08-07T00:59:59;0.60;;;0.60;;
28836;SDS011;50669;50.982;11.022;2023-08-07T01:02:25;0.63;;;0.63;;
28836;SDS011;50669;50.982;11.022;2023-08-07T01:04:51;0.50;;;0.50;;
28836;SDS011;50669;50.982;11.022;2023-08-07T01:07:16;0.90;;;0.60;;
28836;SDS011;50669;50.982;11.022;2023-08-07T01:09:42;0.55;;;0.55;;
28836;SDS011;50669;50.982;11.022;2023-08-07T01:12:10;0.57;;;0.57;;
28836;SDS011;50669;50.982;11.022;2023-08-07T01:14:55;0.60;;;0.60;;
28836;SDS011;50669;50.982;11.022;2023-08-07T01:17:23;0.40;;;0.40;;
28836;SDS011;50669;50.982;11.022;2023-08-07T01:19:51;0.50;;;0.50;;
28836;SDS011;50669;50.982;11.022;2023-08-07T01:22:19;0.52;;;0.52;;
28836;SDS011;50669;50.982;11.022;2023-08-07T01:24:46;0.50;;;0.50;;
28836;SDS011;50669;50.982;11.022;2023-08-07T01:35:17;0.40;;;0.40;;
28836;SDS011;50669;50.982;11.022;2023-08-07T01:37:50;0.47;;;0.47;;
28836;SDS011;50669;50.982;11.022;2023-08-07T01:40:20;0.50;;;0.50;;
28836;SDS011;50669;50.982;11.022;2023-08-07T01:42:50;0.52;;;0.52;;
28836;SDS011;50669;50.982;11.022;2023-08-07T01:45:26;0.50;;;0.50;;
28836;SDS011;50669;50.982;11.022;2023-08-07T01:47:53;0.52;;;0.50;;
28836;SDS011;50669;50.982;11.022;2023-08-07T01:50:21;0.40;;;0.40;;
28836;SDS011;50669;50.982;11.022;2023-08-07T01:52:48;0.50;;;0.50;;
28836;SDS011;50669;50.982;11.022;2023-08-07T01:55:14;0.50;;;0.50;;
28836;SDS011;50669;50.982;11.022;2023-08-07T01:57:41;0.50;;;0.50;;
28836;SDS011;50669;50.982;11.022;2023-08-07T02:00:06;0.80;;;0.63;;
28836;SDS011;50669;50.982;11.022;2023-08-07T02:02:33;0.45;;;0.40;;
28836;SDS011;50669;50.982;11.022;2023-08-07T02:04:59;0.50;;;0.50;;
28836;SDS011;50669;50.982;11.022;2023-08-07T02:07:27;0.40;;;0.40;;
28836;SDS011;50669;50.982;11.022;2023-08-07T02:09:53;0.40;;;0.40;;
28836;SDS011;50669;50.982;11.022;2023-08-07T02:12:19;0.40;;;0.40;;
28836;SDS011;50669;50.982;11.022;2023-08-07T02:14:44;0.60;;;0.60;;
28836;SDS011;50669;50.982;11.022;2023-08-07T02:17:10;0.50;;;0.40;;
28836;SDS011;50669;50.982;11.022;2023-08-07T02:19:35;0.52;;;0.52;;
28836;SDS011;50669;50.982;11.022;2023-08-07T02:22:01;0.50;;;0.50;;
28836;SDS011;50669;50.982;11.022;2023-08-07T02:24:27;0.57;;;0.57;;
28836;SDS011;50669;50.982;11.022;2023-08-07T02:26:53;0.40;;;0.40;;
28836;SDS011;50669;50.982;11.022;2023-08-07T02:29:18;0.63;;;0.50;;
28836;SDS011;50669;50.982;11.022;2023-08-07T02:31:46;0.50;;;0.50;;
28836;SDS011;50669;50.982;11.022;2023-08-07T02:34:12;0.50;;;0.50;;
28836;SDS011;50669;50.982;11.022;2023-08-07T02:36:37;0.50;;;0.50;;
28836;SDS011;50669;50.982;11.022;2023-08-07T02:39:06;0.50;;;0.50;;
28836;SDS011;50669;50.982;11.022;2023-08-07T02:41:32;0.40;;;0.40;;
28836;SDS011;50669;50.982;11.022;2023-08-07T02:43:57;0.50;;;0.50;;
28836;SDS011;50669;50.982;11.022;2023-08-07T02:46:23;0.40;;;0.40;;
28836;SDS011;50669;50.982;11.022;2023-08-07T02:48:51;0.50;;;0.50;;
28836;SDS011;50669;50.982;11.022;2023-08-07T02:51:17;0.40;;;0.40;;
28836;SDS011;50669;50.982;11.022;2023-08-07T02:53:43;0.60;;;0.50;;
28836;SDS011;50669;50.982;11.022;2023-08-07T02:56:09;0.52;;;0.52;;
28836;SDS011;50669;50.982;11.022;2023-08-07T02:58:35;0.38;;;0.38;;
28836;SDS011;50669;50.982;11.022;2023-08-07T03:01:04;0.50;;;0.50;;
28836;SDS011;50669;50.982;11.022;2023-08-07T03:03:31;0.47;;;0.47;;
28836;SDS011;50669;50.982;11.022;2023-08-07T03:05:59;0.50;;;0.50;;
28836;SDS011;50669;50.982;11.022;2023-08-07T03:08:25;0.70;;;0.50;;
28836;SDS011;50669;50.982;11.022;2023-08-07T03:10:54;0.40;;;0.40;;
28836;SDS011;50669;50.982;11.022;2023-08-07T03:13:21;0.40;;;0.40;;
28836;SDS011;50669;50.982;11.022;2023-08-07T03:15:50;0.57;;;0.57;;
28836;SDS011;50669;50.982;11.022;2023-08-07T03:18:16;0.52;;;0.52;;
28836;SDS011;50669;50.982;11.022;2023-08-07T03:20:42;0.65;;;0.40;;
28836;SDS011;50669;50.982;11.022;2023-08-07T03:23:10;0.55;;;0.55;;
28836;SDS011;50669;50.982;11.022;2023-08-07T03:25:38;0.52;;;0.52;;
28836;SDS011;50669;50.982;11.022;2023-08-07T03:28:04;0.40;;;0.40;;
28836;SDS011;50669;50.982;11.022;2023-08-07T03:30:29;0.40;;;0.40;;
28836;SDS011;50669;50.982;11.022;2023-08-07T03:32:55;0.40;;;0.40;;
28836;SDS011;50669;50.982;11.022;2023-08-07T03:35:20;0.40;;;0.40;;
28836;SDS011;50669;50.982;11.022;2023-08-07T03:37:46;0.52;;;0.52;;
28836;SDS011;50669;50.982;11.022;2023-08-07T03:40:12;0.50;;;0.50;;
28836;SDS011;50669;50.982;11.022;2023-08-07T03:42:37;0.40;;;0.40;;
28836;SDS011;50669;50.982;11.022;2023-08-07T03:45:03;0.50;;;0.50;;
28836;SDS011;50669;50.982;11.022;2023-08-07T03:47:34;0.57;;;0.57;;
28836;SDS011;50669;50.982;11.022;2023-08-07T03:50:02;0.40;;;0.40;;
28836;SDS011;50669;50.982;11.022;2023-08-07T03:52:31;0.50;;;0.50;;
28836;SDS011;50669;50.982;11.022;2023-08-07T03:54:56;0.40;;;0.40;;
28836;SDS011;50669;50.982;11.022;2023-08-07T03:57:26;0.75;;;0.55;;
28836;SDS011;50669;50.982;11.022;2023-08-07T03:59:52;0.40;;;0.40;;
28836;SDS011;50669;50.982;11.022;2023-08-07T04:02:19;0.75;;;0.50;;
28836;SDS011;50669;50.982;11.022;2023-08-07T04:04:47;0.50;;;0.50;;
28836;SDS011;50669;50.982;11.022;2023-08-07T04:07:15;0.47;;;0.47;;
28836;SDS011;50669;50.982;11.022;2023-08-07T04:09:42;0.40;;;0.40;;
28836;SDS011;50669;50.982;11.022;2023-08-07T04:12:08;0.32;;;0.32;;
28836;SDS011;50669;50.982;11.022;2023-08-07T04:14:36;0.45;;;0.45;;
28836;SDS011;50669;50.982;11.022;2023-08-07T04:17:02;0.50;;;0.50;;
28836;SDS011;50669;50.982;11.022;2023-08-07T04:19:27;0.50;;;0.50;;
28836;SDS011;50669;50.982;11.022;2023-08-07T04:21:53;0.50;;;0.50;;
28836;SDS011;50669;50.982;11.022;2023-08-07T04:24:19;0.50;;;0.50;;
28836;SDS011;50669;50.982;11.022;2023-08-07T04:26:44;0.52;;;0.52;;
28836;SDS011;50669;50.982;11.022;2023-08-07T04:29:14;0.40;;;0.40;;
28836;SDS011;50669;50.982;11.022;2023-08-07T04:31:40;0.38;;;0.38;;
28836;SDS011;50669;50.982;11.022;2023-08-07T04:34:10;0.50;;;0.50;;
28836;SDS011;50669;50.982;11.022;2023-08-07T04:36:37;0.50;;;0.50;;
28836;SDS011;50669;50.982;11.022;2023-08-07T04:39:03;0.40;;;0.40;;
28836;SDS011;50669;50.982;11.022;2023-08-07T04:41:29;0.50;;;0.50;;
28836;SDS011;50669;50.982;11.022;2023-08-07T04:43:57;0.30;;;0.30;;
28836;SDS011;50669;50.982;11.022;2023-08-07T04:46:22;0.40;;;0.40;;
28836;SDS011;50669;50.982;11.022;2023-08-07T04:48:50;0.40;;;0.40;;
28836;SDS011;50669;50.982;11.022;2023-08-07T04:51:16;0.40;;;0.40;;
28836;SDS011;50669;50.982;11.022;2023-08-07T04:53:46;0.50;;;0.40;;
28836;SDS011;50669;50.982;11.022;2023-08-07T04:56:15;0.50;;;0.50;;
28836;SDS011;50669;50.982;11.022;2023-08-07T04:58:46;0.40;;;0.40;;
28836;SDS011;50669;50.982;11.022;2023-08-07T05:01:11;0.40;;;0.40;;
28836;SDS011;50669;50.982;11.022;2023-08-07T05:03:37;0.40;;;0.40;;
28836;SDS011;50669;50.982;11.022;2023-08-07T05:06:02;0.60;;;0.50;;
28836;SDS011;50669;50.982;11.022;2023-08-07T05:08:28;0.43;;;0.40;;
28836;SDS011;50669;50.982;11.022;2023-08-07T05:10:54;0.47;;;0.40;;
28836;SDS011;50669;50.982;11.022;2023-08-07T05:13:20;0.45;;;0.40;;
28836;SDS011;50669;50.982;11.022;2023-08-07T05:15:48;0.40;;;0.40;;
28836;SDS011;50669;50.982;11.022;2023-08-07T05:18:14;0.43;;;0.43;;
28836;SDS011;50669;50.982;11.022;2023-08-07T05:20:40;0.55;;;0.50;;
28836;SDS011;50669;50.982;11.022;2023-08-07T05:23:08;0.63;;;0.60;;
28836;SDS011;50669;50.982;11.022;2023-08-07T05:25:35;0.40;;;0.40;;
28836;SDS011;50669;50.982;11.022;2023-08-07T05:28:03;0.40;;;0.40;;
28836;SDS011;50669;50.982;11.022;2023-08-07T05:30:30;0.30;;;0.30;;
28836;SDS011;50669;50.982;11.022;2023-08-07T05:32:55;0.47;;;0.47;;
28836;SDS011;50669;50.982;11.022;2023-08-07T05:35:23;0.52;;;0.52;;
28836;SDS011;50669;50.982;11.022;2023-08-07T05:37:51;0.40;;;0.40;;
28836;SDS011;50669;50.982;11.022;2023-08-07T05:40:19;0.30;;;0.30;;
28836;SDS011;50669;50.982;11.022;2023-08-07T05:42:47;0.65;;;0.52;;
28836;SDS011;50669;50.982;11.022;2023-08-07T05:45:13;0.30;;;0.30;;
28836;SDS011;50669;50.982;11.022;2023-08-07T05:47:38;0.40;;;0.40;;
28836;SDS011;50669;50.982;11.022;2023-08-07T05:50:06;0.47;;;0.47;;
28836;SDS011;50669;50.982;11.022;2023-08-07T05:52:32;0.40;;;0.40;;
28836;SDS011;50669;50.982;11.022;2023-08-07T05:54:58;0.50;;;0.40;;
28836;SDS011;50669;50.982;11.022;2023-08-07T05:57:24;0.40;;;0.40;;
28836;SDS011;50669;50.982;11.022;2023-08-07T05:59:50;0.60;;;0.50;;
28836;SDS011;50669;50.982;11.022;2023-08-07T06:02:15;0.60;;;0.50;;
28836;SDS011;50669;50.982;11.022;2023-08-07T06:04:41;0.73;;;0.50;;
28836;SDS011;50669;50.982;11.022;2023-08-07T06:07:07;0.40;;;0.40;;
28836;SDS011;50669;50.982;11.022;2023-08-07T06:09:43;0.50;;;0.40;;
28836;SDS011;50669;50.982;11.022;2023-08-07T06:12:11;0.40;;;0.40;;
28836;SDS011;50669;50.982;11.022;2023-08-07T06:14:37;0.90;;;0.40;;
28836;SDS011;50669;50.982;11.022;2023-08-07T06:17:03;0.40;;;0.40;;
28836;SDS011;50669;50.982;11.022;2023-08-07T06:19:29;0.40;;;0.40;;
28836;SDS011;50669;50.982;11.022;2023-08-07T06:21:55;0.60;;;0.50;;
28836;SDS011;50669;50.982;11.022;2023-08-07T06:24:21;0.40;;;0.40;;
28836;SDS011;50669;50.982;11.022;2023-08-07T06:26:47;0.50;;;0.50;;
28836;SDS011;50669;50.982;11.022;2023-08-07T06:29:13;0.40;;;0.40;;
28836;SDS011;50669;50.982;11.022;2023-08-07T06:31:41;0.35;;;0.35;;
28836;SDS011;50669;50.982;11.022;2023-08-07T06:34:06;0.40;;;0.40;;
28836;SDS011;50669;50.982;11.022;2023-08-07T06:36:32;0.40;;;0.40;;
28836;SDS011;50669;50.982;11.022;2023-08-07T06:39:00;0.75;;;0.50;;
28836;SDS011;50669;50.982;11.022;2023-08-07T06:41:26;0.40;;;0.40;;
28836;SDS011;50669;50.982;11.022;2023-08-07T06:43:54;0.40;;;0.40;;
28836;SDS011;50669;50.982;11.022;2023-08-07T06:46:19;0.45;;;0.40;;
28836;SDS011;50669;50.982;11.022;2023-08-07T06:48:49;0.43;;;0.40;;
28836;SDS011;50669;50.982;11.022;2023-08-07T06:51:17;0.40;;;0.40;;
28836;SDS011;50669;50.982;11.022;2023-08-07T06:53:43;0.50;;;0.50;;
28836;SDS011;50669;50.982;11.022;2023-08-07T06:56:11;0.40;;;0.40;;
28836;SDS011;50669;50.982;11.022;2023-08-07T06:58:39;0.40;;;0.40;;
28836;SDS011;50669;50.982;11.022;2023-08-07T07:01:04;0.50;;;0.50;;
28836;SDS011;50669;50.982;11.022;2023-08-07T07:03:31;0.40;;;0.40;;
28836;SDS011;50669;50.982;11.022;2023-08-07T07:05:58;0.40;;;0.40;;
28836;SDS011;50669;50.982;11.022;2023-08-07T07:08:24;0.32;;;0.32;;
28836;SDS011;50669;50.982;11.022;2023-08-07T07:10:52;0.50;;;0.50;;
28836;SDS011;50669;50.982;11.022;2023-08-07T07:13:18;0.45;;;0.45;;
28836;SDS011;50669;50.982;11.022;2023-08-07T07:15:44;0.38;;;0.38;;
28836;SDS011;50669;50.982;11.022;2023-08-07T07:18:12;0.40;;;0.40;;
28836;SDS011;50669;50.982;11.022;2023-08-07T07:20:40;0.47;;;0.47;;
28836;SDS011;50669;50.982;11.022;2023-08-07T07:23:06;0.57;;;0.40;;
28836;SDS011;50669;50.982;11.022;2023-08-07T07:25:31;0.30;;;0.30;;
28836;SDS011;50669;50.982;11.022;2023-08-07T07:27:57;0.40;;;0.40;;
28836;SDS011;50669;50.982;11.022;2023-08-07T07:30:22;0.40;;;0.40;;
28836;SDS011;50669;50.982;11.022;2023-08-07T07:32:51;0.40;;;0.40;;
28836;SDS011;50669;50.982;11.022;2023-08-07T07:35:19;0.30;;;0.30;;
28836;SDS011;50669;50.982;11.022;2023-08-07T07:37:45;0.30;;;0.30;;
28836;SDS011;50669;50.982;11.022;2023-08-07T07:40:13;0.40;;;0.40;;
28836;SDS011;50669;50.982;11.022;2023-08-07T07:42:38;0.30;;;0.30;;
28836;SDS011;50669;50.982;11.022;2023-08-07T07:45:04;0.40;;;0.40;;
28836;SDS011;50669;50.982;11.022;2023-08-07T07:47:30;0.40;;;0.40;;
28836;SDS011;50669;50.982;11.022;2023-08-07T07:50:06;0.45;;;0.40;;
28836;SDS011;50669;50.982;11.022;2023-08-07T07:52:33;0.40;;;0.40;;
28836;SDS011;50669;50.982;11.022;2023-08-07T07:55:01;0.70;;;0.50;;
28836;SDS011;50669;50.982;11.022;2023-08-07T07:57:27;0.40;;;0.40;;
28836;SDS011;50669;50.982;11.022;2023-08-07T07:59:55;0.30;;;0.30;;
28836;SDS011;50669;50.982;11.022;2023-08-07T08:02:21;0.40;;;0.40;;
28836;SDS011;50669;50.982;11.022;2023-08-07T08:04:51;0.47;;;0.47;;
28836;SDS011;50669;50.982;11.022;2023-08-07T08:07:17;0.30;;;0.30;;
28836;SDS011;50669;50.982;11.022;2023-08-07T08:09:43;0.40;;;0.40;;
28836;SDS011;50669;50.982;11.022;2023-08-07T08:12:12;0.43;;;0.40;;
28836;SDS011;50669;50.982;11.022;2023-08-07T08:14:38;0.40;;;0.40;;
28836;SDS011;50669;50.982;11.022;2023-08-07T08:17:03;0.50;;;0.40;;
28836;SDS011;50669;50.982;11.022;2023-08-07T08:19:29;0.30;;;0.30;;
28836;SDS011;50669;50.982;11.022;2023-08-07T08:21:55;0.40;;;0.40;;
28836;SDS011;50669;50.982;11.022;2023-08-07T08:24:20;0.40;;;0.30;;
28836;SDS011;50669;50.982;11.022;2023-08-07T08:26:46;0.52;;;0.50;;
28836;SDS011;50669;50.982;11.022;2023-08-07T08:29:13;0.40;;;0.40;;
28836;SDS011;50669;50.982;11.022;2023-08-07T08:31:40;0.30;;;0.30;;
28836;SDS011;50669;50.982;11.022;2023-08-07T08:34:08;0.38;;;0.30;;
28836;SDS011;50669;50.982;11.022;2023-08-07T08:36:33;0.45;;;0.40;;
28836;SDS011;50669;50.982;11.022;2023-08-07T08:38:59;0.40;;;0.40;;
28836;SDS011;50669;50.982;11.022;2023-08-07T08:41:25;0.30;;;0.30;;
28836;SDS011;50669;50.982;11.022;2023-08-07T08:43:51;0.30;;;0.30;;
28836;SDS011;50669;50.982;11.022;2023-08-07T08:46:20;0.20;;;0.20;;
28836;SDS011;50669;50.982;11.022;2023-08-07T08:48:53;0.40;;;0.40;;
28836;SDS011;50669;50.982;11.022;2023-08-07T08:51:24;0.40;;;0.40;;
28836;SDS011;50669;50.982;11.022;2023-08-07T08:53:52;0.40;;;0.40;;
28836;SDS011;50669;50.982;11.022;2023-08-07T08:56:21;0.40;;;0.40;;
28836;SDS011;50669;50.982;11.022;2023-08-07T08:58:50;0.30;;;0.30;;
28836;SDS011;50669;50.982;11.022;2023-08-07T09:01:18;0.30;;;0.30;;
28836;SDS011;50669;50.982;11.022;2023-08-07T09:03:47;0.30;;;0.30;;
28836;SDS011;50669;50.982;11.022;2023-08-07T09:06:13;0.30;;;0.30;;
28836;SDS011;50669;50.982;11.022;2023-08-07T09:08:42;0.30;;;0.30;;
28836;SDS011;50669;50.982;11.022;2023-08-07T09:11:10;0.30;;;0.30;;
28836;SDS011;50669;50.982;11.022;2023-08-07T09:13:37;0.40;;;0.40;;
28836;SDS011;50669;50.982;11.022;2023-08-07T09:16:04;0.30;;;0.30;;
28836;SDS011;50669;50.982;11.022;2023-08-07T09:18:36;0.47;;;0.40;;
28836;SDS011;50669;50.982;11.022;2023-08-07T09:21:02;0.40;;;0.40;;
28836;SDS011;50669;50.982;11.022;2023-08-07T09:23:28;0.30;;;0.30;;
28836;SDS011;50669;50.982;11.022;2023-08-07T09:26:00;0.40;;;0.40;;
28836;SDS011;50669;50.982;11.022;2023-08-07T09:28:29;0.40;;;0.40;;
28836;SDS011;50669;50.982;11.022;2023-08-07T09:30:58;0.30;;;0.30;;
28836;SDS011;50669;50.982;11.022;2023-08-07T09:33:28;0.40;;;0.40;;
28836;SDS011;50669;50.982;11.022;2023-08-07T09:35:58;0.20;;;0.20;;
28836;SDS011;50669;50.982;11.022;2023-08-07T09:38:28;0.40;;;0.40;;
28836;SDS011;50669;50.982;11.022;2023-08-07T09:40:58;0.38;;;0.38;;
28836;SDS011;50669;50.982;11.022;2023-08-07T09:43:24;0.40;;;0.40;;
28836;SDS011;50669;50.982;11.022;2023-08-07T09:45:52;0.35;;;0.30;;
28836;SDS011;50669;50.982;11.022;2023-08-07T09:48:26;0.40;;;0.40;;
28836;SDS011;50669;50.982;11.022;2023-08-07T09:50:53;0.40;;;0.40;;
28836;SDS011;50669;50.982;11.022;2023-08-07T09:53:24;0.25;;;0.25;;
28836;SDS011;50669;50.982;11.022;2023-08-07T09:55:52;0.30;;;0.30;;
28836;SDS011;50669;50.982;11.022;2023-08-07T09:58:18;0.30;;;0.30;;
28836;SDS011;50669;50.982;11.022;2023-08-07T10:00:45;0.30;;;0.30;;
28836;SDS011;50669;50.982;11.022;2023-08-07T10:03:15;0.38;;;0.38;;
28836;SDS011;50669;50.982;11.022;2023-08-07T10:05:42;0.40;;;0.40;;
28836;SDS011;50669;50.982;11.022;2023-08-07T10:08:11;0.30;;;0.30;;
28836;SDS011;50669;50.982;11.022;2023-08-07T10:10:38;0.40;;;0.40;;
28836;SDS011;50669;50.982;11.022;2023-08-07T10:13:06;0.30;;;0.30;;
28836;SDS011;50669;50.982;11.022;2023-08-07T10:15:33;0.32;;;0.32;;
28836;SDS011;50669;50.982;11.022;2023-08-07T10:18:02;0.20;;;0.20;;
28836;SDS011;50669;50.982;11.022;2023-08-07T10:20:28;0.50;;;0.40;;
28836;SDS011;50669;50.982;11.022;2023-08-07T10:23:00;0.30;;;0.30;;
28836;SDS011;50669;50.982;11.022;2023-08-07T10:25:37;0.40;;;0.40;;
28836;SDS011;50669;50.982;11.022;2023-08-07T10:28:07;0.35;;;0.35;;
28836;SDS011;50669;50.982;11.022;2023-08-07T10:30:37;0.30;;;0.30;;
28836;SDS011;50669;50.982;11.022;2023-08-07T10:33:04;0.40;;;0.40;;
28836;SDS011;50669;50.982;11.022;2023-08-07T10:35:32;0.30;;;0.30;;
28836;SDS011;50669;50.982;11.022;2023-08-07T10:38:05;0.30;;;0.30;;
28836;SDS011;50669;50.982;11.022;2023-08-07T10:40:33;0.30;;;0.30;;
28836;SDS011;50669;50.982;11.022;2023-08-07T10:43:01;0.40;;;0.40;;
28836;SDS011;50669;50.982;11.022;2023-08-07T10:45:44;0.40;;;0.40;;
28836;SDS011;50669;50.982;11.022;2023-08-07T10:55:53;0.30;;;0.30;;
28836;SDS011;50669;50.982;11.022;2023-08-07T10:58:28;0.30;;;0.30;;
28836;SDS011;50669;50.982;11.022;2023-08-07T11:03:50;0.65;;;0.40;;
28836;SDS011;50669;50.982;11.022;2023-08-07T11:06:18;0.30;;;0.30;;
28836;SDS011;50669;50.982;11.022;2023-08-07T11:08:48;0.30;;;0.30;;
28836;SDS011;50669;50.982;11.022;2023-08-07T11:11:15;0.30;;;0.30;;
28836;SDS011;50669;50.982;11.022;2023-08-07T11:13:40;0.47;;;0.47;;
28836;SDS011;50669;50.982;11.022;2023-08-07T11:16:06;0.28;;;0.25;;
28836;SDS011;50669;50.982;11.022;2023-08-07T11:18:32;0.30;;;0.30;;
28836;SDS011;50669;50.982;11.022;2023-08-07T11:21:00;0.30;;;0.30;;
28836;SDS011;50669;50.982;11.022;2023-08-07T11:23:27;0.25;;;0.25;;
28836;SDS011;50669;50.982;11.022;2023-08-07T11:25:53;0.30;;;0.30;;
28836;SDS011;50669;50.982;11.022;2023-08-07T11:28:22;0.40;;;0.40;;
28836;SDS011;50669;50.982;11.022;2023-08-07T11:30:48;0.25;;;0.25;;
28836;SDS011;50669;50.982;11.022;2023-08-07T11:33:17;0.30;;;0.30;;
28836;SDS011;50669;50.982;11.022;2023-08-07T11:35:49;0.30;;;0.30;;
28836;SDS011;50669;50.982;11.022;2023-08-07T11:38:28;0.30;;;0.30;;
28836;SDS011;50669;50.982;11.022;2023-08-07T11:40:59;0.30;;;0.30;;
28836;SDS011;50669;50.982;11.022;2023-08-07T11:46:01;0.20;;;0.20;;
28836;SDS011;50669;50.982;11.022;2023-08-07T11:48:30;0.30;;;0.30;;
28836;SDS011;50669;50.982;11.022;2023-08-07T11:50:57;0.40;;;0.40;;
28836;SDS011;50669;50.982;11.022;2023-08-07T11:53:24;0.30;;;0.30;;
28836;SDS011;50669;50.982;11.022;2023-08-07T11:55:52;0.30;;;0.30;;
28836;SDS011;50669;50.982;11.022;2023-08-07T11:58:19;0.30;;;0.30;;
28836;SDS011;50669;50.982;11.022;2023-08-07T12:00:46;0.30;;;0.22;;
28836;SDS011;50669;50.982;11.022;2023-08-07T12:03:30;0.20;;;0.20;;
28836;SDS011;50669;50.982;11.022;2023-08-07T12:06:08;0.20;;;0.20;;
28836;SDS011;50669;50.982;11.022;2023-08-07T12:08:36;0.20;;;0.20;;
28836;SDS011;50669;50.982;11.022;2023-08-07T12:11:09;0.25;;;0.25;;
28836;SDS011;50669;50.982;11.022;2023-08-07T12:13:37;0.40;;;0.40;;
28836;SDS011;50669;50.982;11.022;2023-08-07T12:16:06;0.30;;;0.30;;
28836;SDS011;50669;50.982;11.022;2023-08-07T12:18:35;0.20;;;0.20;;
28836;SDS011;50669;50.982;11.022;2023-08-07T12:21:03;0.30;;;0.30;;
28836;SDS011;50669;50.982;11.022;2023-08-07T12:23:34;0.20;;;0.20;;
28836;SDS011;50669;50.982;11.022;2023-08-07T12:26:02;0.22;;;0.22;;
28836;SDS011;50669;50.982;11.022;2023-08-07T12:28:28;0.75;;;0.40;;
28836;SDS011;50669;50.982;11.022;2023-08-07T12:30:54;0.32;;;0.32;;
28836;SDS011;50669;50.982;11.022;2023-08-07T12:33:22;0.30;;;0.30;;
28836;SDS011;50669;50.982;11.022;2023-08-07T12:35:48;0.30;;;0.30;;
28836;SDS011;50669;50.982;11.022;2023-08-07T12:38:14;0.55;;;0.30;;
28836;SDS011;50669;50.982;11.022;2023-08-07T12:40:40;0.30;;;0.30;;
28836;SDS011;50669;50.982;11.022;2023-08-07T12:43:08;0.20;;;0.20;;
28836;SDS011;50669;50.982;11.022;2023-08-07T12:45:34;0.30;;;0.30;;
28836;SDS011;50669;50.982;11.022;2023-08-07T12:48:00;0.30;;;0.30;;
28836;SDS011;50669;50.982;11.022;2023-08-07T12:50:28;0.50;;;0.30;;
28836;SDS011;50669;50.982;11.022;2023-08-07T12:52:54;0.40;;;0.40;;
28836;SDS011;50669;50.982;11.022;2023-08-07T12:55:20;0.40;;;0.40;;
28836;SDS011;50669;50.982;11.022;2023-08-07T12:57:46;0.30;;;0.30;;
28836;SDS011;50669;50.982;11.022;2023-08-07T13:00:14;0.30;;;0.30;;
28836;SDS011;50669;50.982;11.022;2023-08-07T13:02:44;0.40;;;0.30;;
28836;SDS011;50669;50.982;11.022;2023-08-07T13:05:11;0.28;;;0.28;;
28836;SDS011;50669;50.982;11.022;2023-08-07T13:07:40;0.20;;;0.20;;
28836;SDS011;50669;50.982;11.022;2023-08-07T13:10:07;0.30;;;0.30;;
28836;SDS011;50669;50.982;11.022;2023-08-07T13:12:36;0.30;;;0.30;;
28836;SDS011;50669;50.982;11.022;2023-08-07T13:15:03;0.30;;;0.30;;
28836;SDS011;50669;50.982;11.022;2023-08-07T13:17:30;0.30;;;0.30;;
28836;SDS011;50669;50.982;11.022;2023-08-07T13:19:58;0.40;;;0.40;;
28836;SDS011;50669;50.982;11.022;2023-08-07T13:22:25;0.30;;;0.30;;
28836;SDS011;50669;50.982;11.022;2023-08-07T13:24:53;0.20;;;0.20;;
28836;SDS011;50669;50.982;11.022;2023-08-07T13:27:19;0.30;;;0.30;;
28836;SDS011;50669;50.982;11.022;2023-08-07T13:29:44;0.30;;;0.30;;
28836;SDS011;50669;50.982;11.022;2023-08-07T13:32:11;0.35;;;0.35;;
28836;SDS011;50669;50.982;11.022;2023-08-07T13:34:43;0.20;;;0.20;;
28836;SDS011;50669;50.982;11.022;2023-08-07T13:37:10;0.20;;;0.20;;
28836;SDS011;50669;50.982;11.022;2023-08-07T13:39:36;0.30;;;0.30;;
28836;SDS011;50669;50.982;11.022;2023-08-07T13:42:02;0.30;;;0.30;;
28836;SDS011;50669;50.982;11.022;2023-08-07T13:44:28;0.30;;;0.30;;
28836;SDS011;50669;50.982;11.022;2023-08-07T13:46:54;0.30;;;0.30;;
28836;SDS011;50669;50.982;11.022;2023-08-07T13:49:22;0.30;;;0.30;;
28836;SDS011;50669;50.982;11.022;2023-08-07T13:51:48;0.30;;;0.30;;
28836;SDS011;50669;50.982;11.022;2023-08-07T13:54:16;0.20;;;0.20;;
28836;SDS011;50669;50.982;11.022;2023-08-07T13:56:45;0.20;;;0.20;;
28836;SDS011;50669;50.982;11.022;2023-08-07T13:59:10;0.30;;;0.30;;
28836;SDS011;50669;50.982;11.022;2023-08-07T14:01:39;0.30;;;0.30;;
28836;SDS011;50669;50.982;11.022;2023-08-07T14:04:05;0.30;;;0.30;;
28836;SDS011;50669;50.982;11.022;2023-08-07T14:06:31;0.22;;;0.22;;
28836;SDS011;50669;50.982;11.022;2023-08-07T14:08:59;0.28;;;0.28;;
28836;SDS011;50669;50.982;11.022;2023-08-07T14:11:27;0.20;;;0.20;;
28836;SDS011;50669;50.982;11.022;2023-08-07T14:13:56;0.38;;;0.30;;
28836;SDS011;50669;50.982;11.022;2023-08-07T14:16:30;0.30;;;0.30;;
28836;SDS011;50669;50.982;11.022;2023-08-07T14:18:56;0.32;;;0.32;;
28836;SDS011;50669;50.982;11.022;2023-08-07T14:21:22;0.20;;;0.20;;
28836;SDS011;50669;50.982;11.022;2023-08-07T14:23:48;0.30;;;0.30;;
28836;SDS011;50669;50.982;11.022;2023-08-07T14:26:17;0.45;;;0.30;;
28836;SDS011;50669;50.982;11.022;2023-08-07T14:28:43;0.30;;;0.30;;
28836;SDS011;50669;50.982;11.022;2023-08-07T14:31:11;0.32;;;0.32;;
28836;SDS011;50669;50.982;11.022;2023-08-07T14:33:37;0.30;;;0.30;;
28836;SDS011;50669;50.982;11.022;2023-08-07T14:36:03;0.30;;;0.30;;
28836;SDS011;50669;50.982;11.022;2023-08-07T14:38:31;0.30;;;0.30;;
28836;SDS011;50669;50.982;11.022;2023-08-07T14:40:57;0.40;;;0.40;;
28836;SDS011;50669;50.982;11.022;2023-08-07T14:43:29;0.20;;;0.20;;
28836;SDS011;50669;50.982;11.022;2023-08-07T14:45:58;0.20;;;0.20;;
28836;SDS011;50669;50.982;11.022;2023-08-07T14:48:25;0.20;;;0.20;;
28836;SDS011;50669;50.982;11.022;2023-08-07T14:50:51;0.30;;;0.30;;
28836;SDS011;50669;50.982;11.022;2023-08-07T14:53:16;0.22;;;0.22;;
28836;SDS011;50669;50.982;11.022;2023-08-07T14:55:43;0.38;;;0.30;;